Time;durP1;ratioP1;P1;durP2;ratioP2;P2;SDS_P1;SDS_P2;PMS_P1;PMS_P2;Temp;Humidity;BMP_temperature;BMP_pressure;BME280_temperature;BME280_humidity;BME280_pressure;Samples;Min_cycle;Max_cycle;Signal;HPM_P1;HPM_P2
2023/07/10 00:01:33;;;;;;;17.05;15.27;;;20.30;99.90;;;;;;7377757;32;20134;-56
2023/07/10 00:05:35;;;;;;;20.48;15.77;;;20.30;99.90;;;;;;7378883;32;20099;-55
2023/07/10 00:09:37;;;;;;;15.02;13.38;;;20.40;99.90;;;;;;7377152;32;20111;-56
2023/07/10 00:13:39;;;;;;;18.60;14.30;;;20.40;99.90;;;;;;7373981;32;20125;-56
2023/07/10 00:17:45;;;;;;;17.15;12.88;;;20.50;99.90;;;;;;7373267;32;20133;-56
2023/07/10 00:21:47;;;;;;;16.70;13.85;;;20.50;99.90;;;;;;7372930;32;20111;-56
2023/07/10 00:25:49;;;;;;;14.23;10.57;;;20.50;99.90;;;;;;7380771;32;20141;-56
2023/07/10 00:29:51;;;;;;;14.75;12.57;;;20.50;99.90;;;;;;7368709;32;20530;-56
2023/07/10 00:33:54;;;;;;;14.20;11.40;;;20.60;99.90;;;;;;7372401;32;20123;-56
2023/07/10 00:38:02;;;;;;;20.55;13.18;;;20.50;99.90;;;;;;7370931;32;20106;-56
2023/07/10 00:42:22;;;;;;;17.90;11.90;;;20.50;99.90;;;;;;7375210;32;20141;-56
2023/07/10 00:46:42;;;;;;;16.15;10.98;;;20.60;99.90;;;;;;7367008;32;20134;-56
2023/07/10 00:50:46;;;;;;;15.15;9.82;;;20.50;99.90;;;;;;7380787;32;20584;-56
2023/07/10 00:54:51;;;;;;;15.68;9.15;;;20.50;99.90;;;;;;7371651;32;20141;-56
2023/07/10 00:58:53;;;;;;;12.63;8.40;;;20.40;99.90;;;;;;7379796;32;20153;-56
2023/07/10 01:02:55;;;;;;;10.80;7.47;;;20.40;99.90;;;;;;7367409;32;20123;-56
2023/07/10 01:06:56;;;;;;;13.50;7.95;;;20.30;99.90;;;;;;7374581;32;20256;-56
2023/07/10 01:10:59;;;;;;;13.98;9.68;;;20.30;99.90;;;;;;7374520;32;20118;-56
2023/07/10 01:15:03;;;;;;;16.58;10.50;;;20.30;99.90;;;;;;7376868;32;20125;-56
2023/07/10 01:19:10;;;;;;;14.07;11.07;;;20.20;99.90;;;;;;7378445;32;20111;-56
2023/07/10 01:23:12;;;;;;;17.08;12.25;;;20.20;99.90;;;;;;7372053;32;20687;-56
2023/07/10 01:27:14;;;;;;;15.15;13.52;;;20.20;99.90;;;;;;7374800;32;20129;-56
2023/07/10 01:31:19;;;;;;;20.80;16.33;;;20.20;99.90;;;;;;7378134;32;20151;-56
2023/07/10 01:35:22;;;;;;;20.37;18.10;;;20.20;99.90;;;;;;7378762;32;20168;-56
2023/07/10 01:39:39;;;;;;;21.65;17.40;;;20.10;99.90;;;;;;7360434;32;20426;-56
2023/07/10 01:43:40;;;;;;;26.43;20.03;;;20.10;99.90;;;;;;7370379;32;20194;-56
2023/07/10 01:47:42;;;;;;;24.33;18.92;;;20.10;99.90;;;;;;7370837;32;20216;-56
2023/07/10 01:51:45;;;;;;;23.12;19.70;;;20.00;99.90;;;;;;7377464;32;20170;-56
2023/07/10 01:55:47;;;;;;;23.10;17.50;;;19.90;99.90;;;;;;7378007;32;20106;-56
2023/07/10 01:59:50;;;;;;;22.83;18.83;;;19.90;99.90;;;;;;7370170;32;20603;-56
2023/07/10 02:03:52;;;;;;;20.15;16.98;;;19.90;99.90;;;;;;7378446;32;20213;-56
2023/07/10 02:07:54;;;;;;;19.65;17.55;;;19.90;99.90;;;;;;7384595;32;20164;-56
2023/07/10 02:11:56;;;;;;;19.33;16.42;;;19.80;99.90;;;;;;7380133;32;20524;-57
2023/07/10 02:16:02;;;;;;;20.73;18.52;;;19.80;99.90;;;;;;7379062;32;20520;-56
2023/07/10 02:20:05;;;;;;;22.17;17.53;;;19.80;99.90;;;;;;7388931;32;20122;-56
2023/07/10 02:24:08;;;;;;;18.95;16.50;;;19.90;99.90;;;;;;7385783;32;20230;-56
2023/07/10 02:28:09;;;;;;;23.35;17.92;;;19.80;99.90;;;;;;7377186;32;20464;-56
2023/07/10 02:32:11;;;;;;;21.12;16.87;;;19.90;99.90;;;;;;7388379;32;20111;-56
2023/07/10 02:36:13;;;;;;;16.70;14.98;;;19.90;99.90;;;;;;7372453;32;20111;-56
2023/07/10 02:40:15;;;;;;;20.80;18.62;;;19.90;99.90;;;;;;7369997;32;20145;-56
2023/07/10 02:44:17;;;;;;;25.15;18.85;;;19.90;99.90;;;;;;7381422;32;20103;-56
2023/07/10 02:48:19;;;;;;;23.75;16.75;;;19.80;99.90;;;;;;7374060;32;20549;-56
2023/07/10 02:52:21;;;;;;;21.92;16.83;;;19.80;99.90;;;;;;7380091;32;20752;-56
2023/07/10 02:56:23;;;;;;;21.15;16.92;;;19.80;99.90;;;;;;7384276;32;20282;-56
2023/07/10 03:00:24;;;;;;;19.17;15.07;;;19.90;99.90;;;;;;7375143;32;20446;-56
2023/07/10 03:04:26;;;;;;;22.67;18.17;;;19.70;99.90;;;;;;7383163;32;20132;-56
2023/07/10 03:08:29;;;;;;;23.38;18.00;;;19.80;99.90;;;;;;7379124;32;20189;-56
2023/07/10 03:12:31;;;;;;;22.05;19.00;;;19.80;99.90;;;;;;7375321;32;20125;-55
2023/07/10 03:16:33;;;;;;;24.77;17.37;;;19.70;99.90;;;;;;7367712;32;20221;-55
2023/07/10 03:20:39;;;;;;;23.87;19.10;;;19.70;99.90;;;;;;7371562;32;20445;-55
2023/07/10 03:24:41;;;;;;;26.58;22.42;;;19.70;99.90;;;;;;7366872;32;20580;-56
2023/07/10 03:28:43;;;;;;;26.60;20.70;;;19.70;99.90;;;;;;7366522;32;20298;-56
2023/07/10 03:32:45;;;;;;;22.67;19.12;;;19.70;99.90;;;;;;7375601;32;20225;-56
2023/07/10 03:36:47;;;;;;;24.20;18.90;;;19.60;99.90;;;;;;7383576;32;20102;-56
2023/07/10 03:40:53;;;;;;;22.55;20.20;;;19.60;99.90;;;;;;7379682;32;20107;-56
2023/07/10 03:44:55;;;;;;;23.83;20.85;;;19.70;99.90;;;;;;7375454;32;20565;-56
2023/07/10 03:48:57;;;;;;;30.15;22.33;;;19.70;99.90;;;;;;7372964;32;20110;-56
2023/07/10 03:52:59;;;;;;;28.55;22.77;;;19.60;99.90;;;;;;7371403;32;20507;-56
2023/07/10 03:57:01;;;;;;;29.02;22.30;;;19.60;99.90;;;;;;7373277;32;20134;-56
2023/07/10 04:01:02;;;;;;;28.60;22.30;;;19.50;99.90;;;;;;7365506;32;20202;-56
2023/07/10 04:05:05;;;;;;;30.90;26.67;;;19.60;99.90;;;;;;7371604;32;20132;-56
2023/07/10 04:09:06;;;;;;;35.80;30.58;;;19.50;99.90;;;;;;7363921;32;20143;-56
2023/07/10 04:13:08;;;;;;;32.88;27.62;;;19.60;99.90;;;;;;7362838;32;20103;-56
2023/07/10 04:17:14;;;;;;;38.25;31.52;;;19.60;99.90;;;;;;7375576;32;20111;-56
2023/07/10 04:21:18;;;;;;;35.95;31.02;;;19.50;99.90;;;;;;7370658;32;20110;-55
2023/07/10 04:25:20;;;;;;;39.17;31.80;;;19.50;99.90;;;;;;7369319;32;20509;-56
2023/07/10 04:29:22;;;;;;;40.92;31.48;;;19.40;99.90;;;;;;7369542;32;20119;-56
2023/07/10 04:33:25;;;;;;;40.83;32.10;;;19.40;99.90;;;;;;7369090;32;20504;-55
2023/07/10 04:37:26;;;;;;;37.08;31.55;;;19.40;99.90;;;;;;7375340;32;20493;-56
2023/07/10 04:41:28;;;;;;;39.97;32.17;;;19.30;99.90;;;;;;7368546;32;20142;-55
2023/07/10 04:45:31;;;;;;;39.63;33.00;;;19.30;99.90;;;;;;7368041;32;20549;-56
2023/07/10 04:49:32;;;;;;;40.42;31.20;;;19.30;99.90;;;;;;7371094;32;20232;-57
2023/07/10 04:53:34;;;;;;;44.17;33.55;;;19.20;99.90;;;;;;7373907;32;20226;-57
2023/07/10 04:57:36;;;;;;;40.28;34.53;;;19.20;99.90;;;;;;7371232;32;20450;-56
2023/07/10 05:01:38;;;;;;;44.15;35.20;;;19.20;99.90;;;;;;7376948;32;20351;-57
2023/07/10 05:05:40;;;;;;;44.60;34.90;;;19.20;99.90;;;;;;7372610;32;20664;-57
2023/07/10 05:09:41;;;;;;;42.95;35.70;;;19.20;99.90;;;;;;7372264;32;20129;-57
2023/07/10 05:13:43;;;;;;;43.10;34.70;;;19.20;99.90;;;;;;7381166;32;20265;-57
2023/07/10 05:17:46;;;;;;;41.58;32.72;;;19.20;99.90;;;;;;7376490;32;20127;-57
2023/07/10 05:21:48;;;;;;;43.72;34.83;;;19.30;99.90;;;;;;7377754;32;20146;-57
2023/07/10 05:26:17;;;;;;;43.83;33.70;;;19.20;99.90;;;;;;7381225;32;20121;-57
2023/07/10 05:30:18;;;;;;;35.25;29.27;;;19.20;99.90;;;;;;7374194;32;20513;-56
2023/07/10 05:34:22;;;;;;;38.75;34.30;;;19.30;99.90;;;;;;7367781;32;20110;-57
2023/07/10 05:38:27;;;;;;;43.58;31.45;;;19.20;99.90;;;;;;7367315;32;20496;-56
2023/07/10 05:42:29;;;;;;;42.25;31.98;;;19.40;99.90;;;;;;7373887;32;20551;-57
2023/07/10 05:46:30;;;;;;;39.33;29.85;;;19.40;99.90;;;;;;7374163;32;20177;-57
2023/07/10 05:50:33;;;;;;;35.67;28.92;;;19.40;99.90;;;;;;7379079;32;20209;-56
2023/07/10 05:54:34;;;;;;;36.30;28.10;;;19.40;99.90;;;;;;7372280;32;20132;-57
2023/07/10 05:58:38;;;;;;;39.15;29.50;;;19.50;99.90;;;;;;7369591;32;20130;-57
2023/07/10 06:02:40;;;;;;;33.92;26.40;;;19.50;99.90;;;;;;7380682;32;20631;-57
2023/07/10 06:06:42;;;;;;;32.10;26.27;;;19.60;99.90;;;;;;7376659;32;20125;-57
2023/07/10 06:10:45;;;;;;;35.50;26.23;;;19.60;99.90;;;;;;7376825;32;20527;-57
2023/07/10 06:14:47;;;;;;;30.52;23.98;;;19.70;99.90;;;;;;7376704;32;20104;-57
2023/07/10 06:18:49;;;;;;;32.67;24.50;;;19.70;99.90;;;;;;7375567;32;20115;-57
2023/07/10 06:22:50;;;;;;;27.35;21.60;;;19.80;99.90;;;;;;7374286;32;20158;-57
2023/07/10 06:26:52;;;;;;;26.35;22.13;;;19.80;99.90;;;;;;7376686;32;20119;-57
2023/07/10 06:30:59;;;;;;;28.25;22.10;;;19.80;99.90;;;;;;7369710;32;20129;-56
2023/07/10 06:35:01;;;;;;;32.08;24.90;;;19.90;99.90;;;;;;7369797;32;20174;-57
2023/07/10 06:39:04;;;;;;;28.15;23.40;;;19.80;99.90;;;;;;7365412;32;20365;-56
2023/07/10 06:43:07;;;;;;;27.02;22.58;;;19.90;99.90;;;;;;7379408;32;20134;-57
2023/07/10 06:47:09;;;;;;;29.33;23.40;;;19.90;99.90;;;;;;7375447;32;20111;-57
2023/07/10 06:51:11;;;;;;;28.77;22.02;;;20.00;99.90;;;;;;7374272;32;20141;-57
2023/07/10 06:55:16;;;;;;;26.42;19.17;;;20.10;99.90;;;;;;7384150;32;20455;-61
2023/07/10 06:59:21;;;;;;;22.40;18.73;;;20.00;99.90;;;;;;7370863;32;20182;-57
2023/07/10 07:03:23;;;;;;;24.63;18.87;;;20.00;99.90;;;;;;7370048;32;20131;-57
2023/07/10 07:07:25;;;;;;;23.55;16.25;;;20.20;99.90;;;;;;7380831;32;20123;-56
2023/07/10 07:11:27;;;;;;;19.27;12.85;;;20.40;99.90;;;;;;7368510;32;20110;-57
2023/07/10 07:15:29;;;;;;;14.00;9.13;;;20.50;99.90;;;;;;7384336;32;20111;-57
2023/07/10 07:19:32;;;;;;;11.63;8.07;;;20.60;99.90;;;;;;7375705;32;20508;-57
2023/07/10 07:23:34;;;;;;;13.30;6.40;;;20.90;99.90;;;;;;7372868;32;20608;-57
2023/07/10 07:27:36;;;;;;;10.07;7.35;;;21.00;99.90;;;;;;7376786;32;20143;-57
2023/07/10 07:31:40;;;;;;;10.85;7.60;;;21.10;99.90;;;;;;7381834;32;20530;-57
2023/07/10 07:35:42;;;;;;;11.43;7.62;;;21.10;99.90;;;;;;7374208;32;20133;-57
2023/07/10 07:39:44;;;;;;;9.32;7.03;;;20.90;99.90;;;;;;7372155;32;20213;-57
2023/07/10 07:43:46;;;;;;;9.20;5.10;;;21.20;99.90;;;;;;7377258;32;20111;-57
2023/07/10 07:47:48;;;;;;;7.10;3.72;;;21.40;99.90;;;;;;7376141;32;20453;-57
2023/07/10 07:51:53;;;;;;;10.15;5.20;;;21.30;99.90;;;;;;7382053;32;20141;-57
2023/07/10 07:55:55;;;;;;;8.38;3.97;;;21.60;99.90;;;;;;7383605;32;20139;-57
2023/07/10 07:59:58;;;;;;;7.95;4.47;;;21.90;99.90;;;;;;7371693;32;20126;-56
2023/07/10 08:04:00;;;;;;;8.82;5.35;;;22.20;99.90;;;;;;7367402;32;20107;-56
2023/07/10 08:08:04;;;;;;;10.88;5.82;;;22.60;99.90;;;;;;7381314;32;20547;-56
2023/07/10 08:12:06;;;;;;;8.18;5.12;;;22.90;99.90;;;;;;7380403;32;20468;-56
2023/07/10 08:16:08;;;;;;;11.68;4.40;;;23.20;99.90;;;;;;7382933;32;20263;-56
2023/07/10 08:20:11;;;;;;;7.32;3.92;;;23.40;99.90;;;;;;7382479;32;20620;-56
2023/07/10 08:24:14;;;;;;;7.50;3.20;;;23.80;99.90;;;;;;7371973;32;20107;-57
2023/07/10 08:28:15;;;;;;;7.75;2.80;;;24.50;99.90;;;;;;7380077;32;20559;-57
2023/07/10 08:32:17;;;;;;;5.15;2.35;;;24.60;99.90;;;;;;7382205;32;20129;-57
2023/07/10 08:36:19;;;;;;;7.37;2.70;;;24.90;99.90;;;;;;7378346;32;20146;-57
2023/07/10 08:40:31;;;;;;;3.35;2.15;;;25.40;99.90;;;;;;7376012;32;20552;-56
2023/07/10 08:44:36;;;;;;;5.90;1.95;;;25.70;99.90;;;;;;7376045;32;20157;-57
2023/07/10 08:48:58;;;;;;;5.65;1.85;;;25.80;99.90;;;;;;7381240;32;20121;-56
2023/07/10 08:53:10;;;;;;;4.50;1.90;;;25.70;99.90;;;;;;7380167;32;20495;-56
2023/07/10 08:57:17;;;;;;;5.82;1.60;;;26.30;99.90;;;;;;7375636;32;20162;-57
2023/07/10 09:01:30;;;;;;;5.28;1.95;;;26.50;99.90;;;;;;7373752;32;20141;-57
2023/07/10 09:05:36;;;;;;;3.92;1.62;;;27.00;99.90;;;;;;7366917;32;20119;-57
2023/07/10 09:10:01;;;;;;;4.30;1.60;;;27.50;99.90;;;;;;7369088;32;20111;-57
2023/07/10 09:14:36;;;;;;;6.35;1.90;;;27.90;99.90;;;;;;7374351;32;20129;-57
2023/07/10 09:19:00;;;;;;;5.95;2.05;;;28.10;99.90;;;;;;7376808;32;20106;-57
2023/07/10 09:23:21;;;;;;;7.47;2.10;;;28.70;99.90;;;;;;7373026;32;20106;-57
2023/07/10 09:27:24;;;;;;;5.68;1.50;;;28.70;99.90;;;;;;7379974;32;20560;-57
2023/07/10 09:31:56;;;;;;;7.28;1.52;;;29.10;99.90;;;;;;7373257;32;20106;-57
2023/07/10 09:35:58;;;;;;;4.37;1.08;;;28.80;99.90;;;;;;7377176;32;20324;-56
2023/07/10 09:40:19;;;;;;;3.97;1.48;;;28.60;99.90;;;;;;7377311;32;20129;-57
2023/07/10 09:44:22;;;;;;;4.45;1.20;;;28.90;99.50;;;;;;7371458;32;20796;-57
2023/07/10 09:48:33;;;;;;;4.57;1.30;;;29.00;99.90;;;;;;7379122;32;20156;-57
2023/07/10 09:52:40;;;;;;;6.85;1.55;;;29.00;96.70;;;;;;7380305;32;20350;-57
2023/07/10 09:56:42;;;;;;;4.95;1.50;;;28.80;96.60;;;;;;7366805;32;20210;-57
2023/07/10 10:00:48;;;;;;;5.80;1.33;;;28.50;96.70;;;;;;7377250;32;20133;-57
2023/07/10 10:05:07;;;;;;;4.35;1.40;;;29.00;97.70;;;;;;7375003;32;20122;-57
2023/07/10 10:09:21;;;;;;;4.15;1.20;;;29.00;97.20;;;;;;7364803;32;20501;-57
2023/07/10 10:13:32;;;;;;;4.68;1.25;;;28.40;94.70;;;;;;7380116;32;20164;-58
2023/07/10 10:17:40;;;;;;;3.33;1.10;;;28.20;96.70;;;;;;7378830;32;20110;-57
2023/07/10 10:21:42;;;;;;;3.15;1.20;;;28.30;95.90;;;;;;7365874;32;20530;-57
2023/07/10 10:25:45;;;;;;;2.45;1.10;;;28.70;98.30;;;;;;7384443;32;20218;-57
2023/07/10 10:30:11;;;;;;;3.30;1.10;;;28.80;96.40;;;;;;7384027;32;20118;-57
2023/07/10 10:34:20;;;;;;;3.85;1.50;;;29.00;96.20;;;;;;7375302;32;20525;-57
2023/07/10 10:38:41;;;;;;;3.03;1.40;;;28.80;95.50;;;;;;7382910;32;20133;-57
2023/07/10 10:43:19;;;;;;;4.32;1.25;;;28.70;94.80;;;;;;7372884;32;20493;-57
2023/07/10 10:47:35;;;;;;;4.60;1.30;;;27.90;95.60;;;;;;7376902;32;20134;-57
2023/07/10 10:52:00;;;;;;;3.47;1.20;;;27.90;96.80;;;;;;7375405;32;20746;-57
2023/07/10 10:56:28;;;;;;;4.57;1.35;;;27.80;97.20;;;;;;7371754;32;20103;-57
2023/07/10 11:00:55;;;;;;;4.57;1.23;;;27.70;96.40;;;;;;7372441;32;20216;-57
2023/07/10 11:05:10;;;;;;;5.18;1.50;;;27.70;98.60;;;;;;7371329;32;20110;-57
2023/07/10 11:09:22;;;;;;;3.05;1.20;;;27.60;98.80;;;;;;7377210;32;20572;-57
2023/07/10 11:13:31;;;;;;;3.55;1.40;;;27.90;98.00;;;;;;7374889;32;20136;-57
2023/07/10 11:17:33;;;;;;;5.93;1.40;;;28.00;96.00;;;;;;7375182;32;20107;-57
2023/07/10 11:21:35;;;;;;;3.67;1.95;;;27.50;95.90;;;;;;7378542;32;20579;-57
2023/07/10 11:25:42;;;;;;;5.18;1.62;;;26.30;98.00;;;;;;7384193;32;20149;-57
2023/07/10 11:30:13;;;;;;;2.95;1.30;;;26.70;98.80;;;;;;7383406;32;20173;-58
2023/07/10 11:34:24;;;;;;;3.10;1.10;;;26.90;98.50;;;;;;7378147;32;20213;-57
2023/07/10 11:38:26;;;;;;;3.05;1.12;;;27.10;97.90;;;;;;7376195;32;20119;-57
2023/07/10 11:42:28;;;;;;;5.18;1.10;;;27.40;99.00;;;;;;7375483;32;20434;-57
2023/07/10 11:46:34;;;;;;;2.83;0.90;;;27.80;93.60;;;;;;7380715;32;20547;-57
2023/07/10 11:50:36;;;;;;;3.78;1.10;;;28.10;95.50;;;;;;7364713;32;20177;-57
2023/07/10 11:54:38;;;;;;;4.70;1.25;;;28.30;95.60;;;;;;7382948;32;20126;-57
2023/07/10 11:58:41;;;;;;;4.68;1.40;;;28.10;92.90;;;;;;7366953;32;20197;-57
2023/07/10 12:02:51;;;;;;;4.20;1.25;;;28.10;94.60;;;;;;7370001;32;20532;-57
2023/07/10 12:06:57;;;;;;;6.30;1.20;;;28.30;93.40;;;;;;7377440;32;20155;-57
2023/07/10 12:10:59;;;;;;;4.47;1.10;;;27.90;92.00;;;;;;7372520;32;20141;-57
2023/07/10 12:15:03;;;;;;;4.10;1.30;;;27.90;94.10;;;;;;7377962;32;20502;-57
2023/07/10 12:19:15;;;;;;;2.97;1.00;;;27.60;93.60;;;;;;7376048;32;20185;-57
2023/07/10 12:23:19;;;;;;;2.78;1.05;;;27.00;93.50;;;;;;7378693;32;20104;-58
2023/07/10 12:27:22;;;;;;;3.33;1.10;;;26.90;97.20;;;;;;7372875;32;20639;-57
2023/07/10 12:31:29;;;;;;;7.32;1.60;;;27.30;92.40;;;;;;7375365;32;20099;-57
2023/07/10 12:35:35;;;;;;;2.90;1.30;;;27.70;93.20;;;;;;7373361;32;20165;-58
2023/07/10 12:39:37;;;;;;;4.25;1.20;;;27.60;94.10;;;;;;7364951;32;20198;-57
2023/07/10 12:43:47;;;;;;;4.07;1.23;;;27.00;95.50;;;;;;7365702;32;20095;-57
2023/07/10 12:47:55;;;;;;;3.42;1.00;;;27.20;94.50;;;;;;7370133;32;20103;-57
2023/07/10 12:52:05;;;;;;;3.83;1.40;;;27.40;95.00;;;;;;7373909;32;20114;-57
2023/07/10 12:56:18;;;;;;;3.75;1.10;;;27.50;95.20;;;;;;7379477;32;20106;-57
2023/07/10 13:00:20;;;;;;;3.55;1.30;;;27.90;94.90;;;;;;7366595;32;20126;-57
2023/07/10 13:04:25;;;;;;;4.68;1.27;;;28.30;94.00;;;;;;7373194;32;20137;-57
2023/07/10 13:08:38;;;;;;;4.53;1.25;;;28.50;94.70;;;;;;7372280;32;20180;-57
2023/07/10 13:12:40;;;;;;;4.95;1.10;;;28.60;90.40;;;;;;7372901;32;20107;-57
2023/07/10 13:16:44;;;;;;;3.15;1.10;;;28.90;89.70;;;;;;7381125;32;20118;-57
2023/07/10 13:20:46;;;;;;;2.80;0.82;;;28.60;92.70;;;;;;7363862;32;20444;-57
2023/07/10 13:24:49;;;;;;;3.75;1.05;;;28.40;91.20;;;;;;7366108;32;20106;-57
2023/07/10 13:28:54;;;;;;;3.45;1.05;;;28.50;90.80;;;;;;7374483;32;20124;-57
2023/07/10 13:32:56;;;;;;;2.65;1.20;;;28.60;90.20;;;;;;7376398;32;20190;-57
2023/07/10 13:36:58;;;;;;;4.70;1.40;;;28.60;90.90;;;;;;7373165;32;20103;-57
2023/07/10 13:40:59;;;;;;;3.17;1.12;;;28.70;90.90;;;;;;7371675;32;20130;-57
2023/07/10 13:45:02;;;;;;;5.40;1.17;;;28.70;91.10;;;;;;7373346;32;20136;-58
2023/07/10 13:49:12;;;;;;;5.40;1.33;;;28.40;91.20;;;;;;7371672;32;20209;-57
2023/07/10 13:53:20;;;;;;;5.05;1.30;;;28.90;90.40;;;;;;7377301;32;20230;-57
2023/07/10 13:57:25;;;;;;;5.55;1.48;;;28.90;89.10;;;;;;7376973;32;20127;-57
2023/07/10 14:01:32;;;;;;;5.62;1.20;;;29.30;90.70;;;;;;7371622;32;20103;-58
2023/07/10 14:05:34;;;;;;;4.62;1.40;;;29.20;90.90;;;;;;7376528;32;20115;-58
2023/07/10 14:09:36;;;;;;;4.40;1.33;;;29.30;86.70;;;;;;7379891;32;20540;-58
2023/07/10 14:13:38;;;;;;;5.62;1.42;;;29.00;86.10;;;;;;7373500;32;20107;-57
2023/07/10 14:17:41;;;;;;;5.05;1.30;;;28.60;89.50;;;;;;7372577;32;20135;-57
2023/07/10 14:21:44;;;;;;;3.80;1.17;;;28.30;92.00;;;;;;7372933;32;20149;-57
2023/07/10 14:25:47;;;;;;;6.47;1.20;;;27.50;91.00;;;;;;7374471;32;20265;-58
2023/07/10 14:29:50;;;;;;;5.93;1.37;;;27.10;90.60;;;;;;7373314;32;20107;-58
2023/07/10 14:33:52;;;;;;;5.93;1.35;;;27.00;91.60;;;;;;7373442;32;20151;-57
2023/07/10 14:37:53;;;;;;;4.53;1.58;;;26.90;91.60;;;;;;7367704;32;20606;-58
2023/07/10 14:41:55;;;;;;;5.60;1.87;;;26.80;92.60;;;;;;7371112;32;20163;-58
2023/07/10 14:45:58;;;;;;;4.87;1.40;;;27.20;92.20;;;;;;7377978;32;20586;-58
2023/07/10 14:50:02;;;;;;;4.30;1.30;;;27.70;91.00;;;;;;7373132;32;20142;-57
2023/07/10 14:54:04;;;;;;;2.95;1.25;;;27.80;88.20;;;;;;7374093;32;20796;-58
2023/07/10 14:58:15;;;;;;;3.67;1.45;;;28.40;88.70;;;;;;7374841;32;20123;-58
2023/07/10 15:02:19;;;;;;;5.97;1.23;;;28.80;88.20;;;;;;7376427;32;20702;-58
2023/07/10 15:06:28;;;;;;;5.25;1.37;;;29.30;87.00;;;;;;7369868;32;20130;-58
2023/07/10 15:10:30;;;;;;;6.85;1.33;;;29.40;87.20;;;;;;7377117;32;20417;-58
2023/07/10 15:14:32;;;;;;;4.35;1.23;;;30.00;83.10;;;;;;7383437;32;20128;-58
2023/07/10 15:18:34;;;;;;;4.05;1.42;;;29.60;81.30;;;;;;7378077;32;20122;-58
2023/07/10 15:22:36;;;;;;;5.70;1.33;;;29.40;82.20;;;;;;7374092;32;20533;-58
2023/07/10 15:26:37;;;;;;;3.87;1.20;;;29.40;80.60;;;;;;7378757;32;20130;-58
2023/07/10 15:30:40;;;;;;;8.15;4.40;;;28.00;83.00;;;;;;7371908;32;20119;-58
2023/07/10 15:34:43;;;;;;;5.12;1.42;;;27.80;84.40;;;;;;7372694;32;20106;-58
2023/07/10 15:38:46;;;;;;;2.78;1.08;;;27.60;87.30;;;;;;7372617;32;20551;-58
2023/07/10 15:42:51;;;;;;;3.95;1.10;;;27.30;85.50;;;;;;7375725;32;20134;-58
2023/07/10 15:46:53;;;;;;;4.00;1.23;;;27.30;83.40;;;;;;7378912;32;20289;-57
2023/07/10 15:50:56;;;;;;;4.25;1.25;;;27.30;81.80;;;;;;7375620;32;20191;-58
2023/07/10 15:55:12;;;;;;;2.75;1.12;;;27.10;85.60;;;;;;7378783;32;20158;-58
2023/07/10 15:59:16;;;;;;;4.35;1.20;;;26.90;88.10;;;;;;7364966;32;20126;-58
2023/07/10 16:03:25;;;;;;;3.42;1.15;;;26.80;86.10;;;;;;7369944;32;20114;-58
2023/07/10 16:07:27;;;;;;;4.40;1.30;;;26.80;90.20;;;;;;7380886;32;20770;-58
2023/07/10 16:11:28;;;;;;;3.08;1.35;;;26.30;90.20;;;;;;7373300;32;20130;-58
2023/07/10 16:15:30;;;;;;;3.70;1.40;;;26.60;90.60;;;;;;7372471;32;20221;-58
2023/07/10 16:19:32;;;;;;;6.25;1.42;;;26.50;91.20;;;;;;7377488;32;20337;-58
2023/07/10 16:23:35;;;;;;;5.55;1.35;;;26.80;90.00;;;;;;7372206;32;20099;-58
2023/07/10 16:27:37;;;;;;;3.47;1.20;;;26.90;90.10;;;;;;7382050;32;20231;-59
2023/07/10 16:31:40;;;;;;;7.40;1.37;;;26.80;90.00;;;;;;7368758;32;20494;-58
2023/07/10 16:35:43;;;;;;;6.35;1.10;;;27.00;90.80;;;;;;7379332;32;20111;-58
2023/07/10 16:39:45;;;;;;;5.43;1.20;;;26.90;85.30;;;;;;7375033;32;20133;-58
2023/07/10 16:43:48;;;;;;;2.42;1.02;;;26.90;83.30;;;;;;7376592;32;20192;-58
2023/07/10 16:47:50;;;;;;;2.40;0.90;;;26.70;81.30;;;;;;7381399;32;20134;-58
2023/07/10 16:51:52;;;;;;;5.00;1.20;;;26.60;84.80;;;;;;7375914;32;20264;-58
2023/07/10 16:55:56;;;;;;;4.25;1.17;;;26.60;86.20;;;;;;7377908;32;20099;-58
2023/07/10 16:59:58;;;;;;;4.68;1.80;;;26.50;84.10;;;;;;7375236;32;20102;-57
2023/07/10 17:04:00;;;;;;;7.05;0.95;;;26.60;82.30;;;;;;7373722;32;20107;-58
2023/07/10 17:08:13;;;;;;;4.00;1.10;;;26.20;85.30;;;;;;7379168;32;20178;-57
2023/07/10 17:12:16;;;;;;;4.87;1.40;;;26.20;84.60;;;;;;7376414;32;20265;-58
2023/07/10 17:16:18;;;;;;;5.93;1.20;;;26.10;89.00;;;;;;7381135;32;20198;-58
2023/07/10 17:20:20;;;;;;;4.00;1.05;;;26.20;87.30;;;;;;7380309;32;20221;-58
2023/07/10 17:24:22;;;;;;;3.53;1.12;;;26.20;85.90;;;;;;7377177;32;20295;-58
2023/07/10 17:28:38;;;;;;;4.07;1.20;;;26.10;84.10;;;;;;7367249;32;20616;-58
2023/07/10 17:32:40;;;;;;;3.55;1.02;;;26.00;87.90;;;;;;7366979;32;20102;-58
2023/07/10 17:36:42;;;;;;;4.97;1.02;;;25.80;87.00;;;;;;7377592;32;20119;-58
2023/07/10 17:40:47;;;;;;;2.90;1.17;;;25.90;85.50;;;;;;7379445;32;20099;-58
2023/07/10 17:44:49;;;;;;;6.05;1.12;;;25.60;87.80;;;;;;7366840;32;20130;-58
2023/07/10 17:48:51;;;;;;;7.85;1.10;;;25.60;87.70;;;;;;7377325;32;20589;-58
2023/07/10 17:52:53;;;;;;;3.53;1.20;;;25.50;90.60;;;;;;7377678;32;20125;-58
2023/07/10 17:56:56;;;;;;;3.87;1.00;;;25.40;89.50;;;;;;7375376;32;20586;-58
2023/07/10 18:00:58;;;;;;;4.12;1.05;;;25.40;90.90;;;;;;7374015;32;20507;-58
2023/07/10 18:05:00;;;;;;;3.28;1.20;;;25.30;90.60;;;;;;7376368;32;20203;-58
2023/07/10 18:09:02;;;;;;;3.37;1.15;;;25.20;91.60;;;;;;7374885;32;20111;-58
2023/07/10 18:13:04;;;;;;;1.98;0.95;;;25.10;92.70;;;;;;7379789;32;20549;-58
2023/07/10 18:17:20;;;;;;;4.28;1.10;;;25.10;91.10;;;;;;7373598;32;20115;-58
2023/07/10 18:21:28;;;;;;;3.20;1.00;;;25.00;93.70;;;;;;7366168;32;20373;-58
2023/07/10 18:25:30;;;;;;;5.93;1.37;;;24.90;96.00;;;;;;7372988;32;20103;-57
2023/07/10 18:29:31;;;;;;;5.03;1.25;;;24.80;93.80;;;;;;7370519;32;20165;-58
2023/07/10 18:33:34;;;;;;;5.65;1.10;;;24.60;93.80;;;;;;7365885;32;20310;-58
2023/07/10 18:37:35;;;;;;;3.60;1.42;;;24.50;95.00;;;;;;7374418;32;20129;-58
2023/07/10 18:41:40;;;;;;;3.58;1.10;;;24.30;96.60;;;;;;7366141;32;20114;-58
2023/07/10 18:45:42;;;;;;;7.32;1.20;;;24.30;99.30;;;;;;7372741;32;20115;-58
2023/07/10 18:49:44;;;;;;;4.20;1.20;;;24.20;99.90;;;;;;7372156;32;20133;-58
2023/07/10 18:53:47;;;;;;;4.10;0.93;;;23.90;99.90;;;;;;7379423;32;20175;-58
2023/07/10 18:57:49;;;;;;;4.68;1.00;;;23.70;99.90;;;;;;7370424;32;20448;-58
2023/07/10 19:01:50;;;;;;;4.75;1.67;;;23.50;99.90;;;;;;7380437;32;20126;-58
2023/07/10 19:05:55;;;;;;;3.67;1.10;;;23.30;99.90;;;;;;7372998;32;20115;-58
2023/07/10 19:09:57;;;;;;;5.07;1.42;;;23.00;99.90;;;;;;7376766;32;20624;-58
2023/07/10 19:13:59;;;;;;;5.32;1.30;;;22.90;99.90;;;;;;7381442;32;20110;-57
2023/07/10 19:18:01;;;;;;;4.60;1.40;;;22.60;99.90;;;;;;7382464;32;20103;-58
2023/07/10 19:22:03;;;;;;;6.20;1.35;;;22.40;99.90;;;;;;7378063;32;20519;-58
2023/07/10 19:26:05;;;;;;;4.85;1.37;;;22.20;99.90;;;;;;7383275;32;20745;-57
2023/07/10 19:30:14;;;;;;;7.00;1.58;;;21.90;99.90;;;;;;7380608;32;20219;-58
2023/07/10 19:34:18;;;;;;;7.22;1.60;;;21.70;99.90;;;;;;7378213;32;20107;-58
2023/07/10 19:38:25;;;;;;;6.35;1.45;;;21.50;99.90;;;;;;7372030;32;20183;-58
2023/07/10 19:42:27;;;;;;;3.90;1.52;;;21.30;99.90;;;;;;7373988;32;20107;-58
2023/07/10 19:46:28;;;;;;;4.68;1.52;;;21.10;99.90;;;;;;7382917;32;20132;-58
2023/07/10 19:50:30;;;;;;;8.45;1.55;;;20.90;99.90;;;;;;7382444;32;20483;-58
2023/07/10 19:54:32;;;;;;;4.15;1.50;;;20.70;99.90;;;;;;7372157;32;20141;-57
2023/07/10 19:58:34;;;;;;;6.20;1.67;;;20.60;99.90;;;;;;7381999;32;20111;-56
2023/07/10 20:02:36;;;;;;;6.45;1.40;;;20.40;99.90;;;;;;7378311;32;20572;-56
2023/07/10 20:06:40;;;;;;;3.85;1.20;;;20.30;99.90;;;;;;7374074;32;20111;-56
2023/07/10 20:10:42;;;;;;;4.55;1.75;;;20.30;99.90;;;;;;7381634;32;20111;-56
2023/07/10 20:14:44;;;;;;;6.22;1.35;;;20.10;99.90;;;;;;7366726;32;20134;-56
2023/07/10 20:18:46;;;;;;;7.22;1.50;;;19.90;99.90;;;;;;7371418;32;20366;-56
2023/07/10 20:22:49;;;;;;;5.32;1.40;;;19.80;99.90;;;;;;7374264;32;20111;-56
2023/07/10 20:26:50;;;;;;;4.68;1.50;;;19.60;99.90;;;;;;7382579;32;20838;-56
2023/07/10 20:30:54;;;;;;;4.12;1.98;;;19.70;99.90;;;;;;7372135;32;20107;-56
2023/07/10 20:34:56;;;;;;;6.22;1.80;;;19.50;99.90;;;;;;7374281;32;20580;-56
2023/07/10 20:38:58;;;;;;;8.07;2.12;;;19.40;99.90;;;;;;7377276;32;20190;-56
2023/07/10 20:43:00;;;;;;;9.27;1.90;;;19.30;99.90;;;;;;7374729;32;20513;-56
2023/07/10 20:47:02;;;;;;;9.10;2.15;;;19.20;99.90;;;;;;7382085;32;20107;-56
2023/07/10 20:51:05;;;;;;;6.57;1.87;;;19.10;99.90;;;;;;7372163;32;20146;-56
2023/07/10 20:55:12;;;;;;;6.28;1.87;;;19.00;99.90;;;;;;7381999;32;20182;-56
2023/07/10 20:59:24;;;;;;;6.20;1.58;;;19.00;99.90;;;;;;7381775;32;20134;-57
2023/07/10 21:03:28;;;;;;;5.05;1.83;;;18.90;99.90;;;;;;7374147;32;20133;-56